Time;durP1;ratioP1;P1;durP2;ratioP2;P2;SDS_P1;SDS_P2;PMS_P1;PMS_P2;Temp;Humidity;BMP_temperature;BMP_pressure;BME280_temperature;BME280_humidity;BME280_pressure;Samples;Min_cycle;Max_cycle;Signal;HPM_P1;HPM_P2
2023/03/05 00:00:36;;;;;;;0.82;0.70;;;;;;;;;;4988022;28;20065;-79
2023/03/05 00:03:02;;;;;;;1.27;0.80;;;;;;;;;;4984621;28;20026;-79
2023/03/05 00:05:28;;;;;;;0.70;0.70;;;;;;;;;;4986968;28;20101;-80
2023/03/05 00:07:54;;;;;;;1.70;1.25;;;;;;;;;;4988738;28;20029;-80
2023/03/05 00:10:20;;;;;;;1.30;0.60;;;;;;;;;;4986579;28;20030;-80
2023/03/05 00:12:46;;;;;;;3.38;0.70;;;;;;;;;;4988848;28;20022;-80
2023/03/05 00:15:12;;;;;;;0.90;0.63;;;;;;;;;;4983242;28;20493;-80
2023/03/05 00:17:38;;;;;;;1.65;0.70;;;;;;;;;;4988690;28;20014;-80
2023/03/05 00:20:04;;;;;;;1.20;0.77;;;;;;;;;;4987405;28;20026;-80
2023/03/05 00:22:30;;;;;;;1.15;0.65;;;;;;;;;;4988697;28;20500;-80
2023/03/05 00:24:56;;;;;;;0.52;0.43;;;;;;;;;;4987731;28;20031;-80
2023/03/05 00:27:22;;;;;;;2.47;0.63;;;;;;;;;;4988850;28;20540;-80
2023/03/05 00:29:48;;;;;;;0.55;0.50;;;;;;;;;;4986575;28;20061;-80
2023/03/05 00:32:14;;;;;;;0.85;0.65;;;;;;;;;;5000490;28;20076;-80
2023/03/05 00:34:40;;;;;;;1.65;1.00;;;;;;;;;;4985174;28;20533;-80
2023/03/05 00:37:06;;;;;;;2.05;0.70;;;;;;;;;;4988023;28;20011;-80
2023/03/05 00:39:32;;;;;;;1.65;0.50;;;;;;;;;;4988593;28;20555;-80
2023/03/05 00:41:58;;;;;;;0.95;0.82;;;;;;;;;;4987519;28;20039;-81
2023/03/05 00:44:24;;;;;;;4.35;0.75;;;;;;;;;;4988771;28;20023;-80
2023/03/05 00:46:50;;;;;;;1.15;0.70;;;;;;;;;;4985302;28;20030;-79
2023/03/05 00:49:16;;;;;;;1.75;1.08;;;;;;;;;;4985108;28;20041;-79
2023/03/05 00:51:42;;;;;;;4.40;0.70;;;;;;;;;;4986624;28;20417;-79
2023/03/05 00:54:08;;;;;;;2.75;0.77;;;;;;;;;;4987843;28;20073;-80
2023/03/05 00:56:34;;;;;;;3.03;1.10;;;;;;;;;;4986241;28;20089;-80
2023/03/05 00:59:00;;;;;;;0.73;0.60;;;;;;;;;;4988293;28;20022;-80
2023/03/05 01:01:27;;;;;;;1.65;0.55;;;;;;;;;;4988321;28;20041;-80
2023/03/05 01:03:55;;;;;;;1.45;0.40;;;;;;;;;;4984385;28;20053;-80
2023/03/05 01:06:21;;;;;;;0.38;0.38;;;;;;;;;;4983854;28;20027;-80
2023/03/05 01:08:47;;;;;;;1.52;0.88;;;;;;;;;;4987497;28;20054;-80
2023/03/05 01:11:13;;;;;;;4.88;1.10;;;;;;;;;;4986565;28;20030;-80
2023/03/05 01:13:39;;;;;;;1.48;0.60;;;;;;;;;;4987528;28;20088;-79
2023/03/05 01:16:05;;;;;;;0.38;0.35;;;;;;;;;;4985347;28;20026;-79
2023/03/05 01:18:31;;;;;;;1.98;0.63;;;;;;;;;;4980591;28;20034;-80
2023/03/05 01:21:03;;;;;;;0.95;0.50;;;;;;;;;;4986287;28;20026;-79
2023/03/05 01:23:29;;;;;;;4.85;0.75;;;;;;;;;;4983364;28;20027;-80
2023/03/05 01:25:56;;;;;;;0.45;0.45;;;;;;;;;;4985950;28;20038;-80
2023/03/05 01:28:22;;;;;;;4.93;0.50;;;;;;;;;;4985819;28;20044;-80
2023/03/05 01:30:48;;;;;;;2.80;0.65;;;;;;;;;;4986989;28;20388;-80
2023/03/05 01:33:14;;;;;;;0.47;0.30;;;;;;;;;;4986593;28;20034;-79
2023/03/05 01:35:40;;;;;;;0.45;0.45;;;;;;;;;;4987316;28;20033;-80
2023/03/05 01:38:06;;;;;;;1.23;0.40;;;;;;;;;;4984126;28;20111;-80
2023/03/05 01:40:32;;;;;;;1.42;0.50;;;;;;;;;;4985288;28;21035;-80
2023/03/05 01:43:00;;;;;;;4.32;0.70;;;;;;;;;;4986145;28;20447;-80
2023/03/05 01:45:29;;;;;;;0.55;0.47;;;;;;;;;;4986098;28;20129;-80
2023/03/05 01:47:55;;;;;;;0.75;0.70;;;;;;;;;;4983680;28;20031;-79
2023/03/05 01:50:24;;;;;;;0.63;0.40;;;;;;;;;;4985880;28;20097;-80
2023/03/05 01:52:54;;;;;;;0.65;0.45;;;;;;;;;;4985398;28;20426;-79
2023/03/05 01:55:22;;;;;;;0.60;0.40;;;;;;;;;;4986339;28;20026;-79
2023/03/05 01:57:51;;;;;;;1.85;0.50;;;;;;;;;;4984647;28;20134;-80
2023/03/05 02:00:19;;;;;;;1.13;0.43;;;;;;;;;;4984795;28;20041;-80
2023/03/05 02:02:47;;;;;;;1.08;0.22;;;;;;;;;;4986676;28;20057;-81
2023/03/05 02:05:25;;;;;;;8.45;0.70;;;;;;;;;;4986181;28;20085;-80
2023/03/05 02:07:52;;;;;;;0.57;0.32;;;;;;;;;;4986381;28;20089;-79
2023/03/05 02:10:19;;;;;;;1.10;0.40;;;;;;;;;;4982446;28;20121;-80
2023/03/05 02:12:46;;;;;;;0.80;0.40;;;;;;;;;;4983862;28;20034;-80
2023/03/05 02:15:12;;;;;;;1.45;0.82;;;;;;;;;;4986699;28;20026;-79
2023/03/05 02:17:38;;;;;;;1.65;0.40;;;;;;;;;;4985410;28;20370;-80
2023/03/05 02:20:09;;;;;;;0.40;0.40;;;;;;;;;;4983617;28;20424;-81
2023/03/05 02:22:35;;;;;;;1.45;0.35;;;;;;;;;;4979214;28;20034;-80
2023/03/05 02:25:01;;;;;;;1.63;0.43;;;;;;;;;;4986926;28;20034;-80
2023/03/05 02:27:33;;;;;;;2.05;0.40;;;;;;;;;;4989296;28;20552;-79
2023/03/05 02:30:00;;;;;;;4.32;0.50;;;;;;;;;;4988329;28;20035;-80
2023/03/05 02:32:26;;;;;;;1.90;0.75;;;;;;;;;;4989307;28;20045;-80
2023/03/05 02:34:52;;;;;;;0.40;0.40;;;;;;;;;;4988263;28;20080;-80
2023/03/05 02:37:18;;;;;;;0.40;0.30;;;;;;;;;;4989482;28;20030;-80
2023/03/05 02:39:44;;;;;;;5.07;0.40;;;;;;;;;;4989174;28;20026;-80
2023/03/05 02:42:10;;;;;;;3.53;1.10;;;;;;;;;;4988429;28;20489;-80
2023/03/05 02:44:36;;;;;;;0.73;0.38;;;;;;;;;;4985517;28;20057;-80
2023/03/05 02:47:02;;;;;;;0.65;0.57;;;;;;;;;;4988818;28;20132;-80
2023/03/05 02:49:28;;;;;;;0.38;0.28;;;;;;;;;;4988598;28;20054;-80
2023/03/05 02:51:54;;;;;;;0.32;0.30;;;;;;;;;;4988818;28;20026;-80
2023/03/05 02:54:20;;;;;;;1.58;0.52;;;;;;;;;;4989287;28;20053;-80
2023/03/05 02:56:46;;;;;;;0.68;0.40;;;;;;;;;;4986464;28;20069;-80
2023/03/05 02:59:12;;;;;;;0.47;0.22;;;;;;;;;;4988896;28;20031;-80
2023/03/05 03:01:38;;;;;;;0.98;0.40;;;;;;;;;;4987620;28;20034;-80
2023/03/05 03:04:04;;;;;;;1.42;0.55;;;;;;;;;;4988457;28;20176;-80
2023/03/05 03:06:30;;;;;;;1.20;0.43;;;;;;;;;;4988109;28;20061;-79
2023/03/05 03:08:57;;;;;;;1.30;0.40;;;;;;;;;;4988413;28;20058;-80
2023/03/05 03:11:23;;;;;;;0.38;0.22;;;;;;;;;;4987660;28;20037;-80
2023/03/05 03:13:49;;;;;;;1.05;0.50;;;;;;;;;;4990073;28;20396;-80
2023/03/05 03:16:15;;;;;;;0.60;0.35;;;;;;;;;;4987293;28;20030;-80
2023/03/05 03:18:42;;;;;;;0.55;0.40;;;;;;;;;;4988036;28;20030;-80
2023/03/05 03:21:08;;;;;;;0.38;0.20;;;;;;;;;;4985541;28;20095;-80
2023/03/05 03:23:34;;;;;;;0.40;0.40;;;;;;;;;;4987785;28;20059;-80
2023/03/05 03:26:00;;;;;;;0.47;0.40;;;;;;;;;;4987839;28;20042;-80
2023/03/05 03:28:26;;;;;;;0.30;0.20;;;;;;;;;;4987499;28;20035;-80
2023/03/05 03:30:52;;;;;;;0.88;0.38;;;;;;;;;;4985275;28;20030;-80
2023/03/05 03:33:18;;;;;;;0.32;0.32;;;;;;;;;;4986221;28;20026;-80
2023/03/05 03:35:45;;;;;;;0.52;0.40;;;;;;;;;;4987693;28;20413;-80
2023/03/05 03:38:12;;;;;;;0.65;0.50;;;;;;;;;;4988204;28;20485;-81
2023/03/05 03:40:38;;;;;;;2.83;0.30;;;;;;;;;;4987505;28;20033;-80
2023/03/05 03:43:04;;;;;;;0.20;0.20;;;;;;;;;;4984405;28;20034;-79
2023/03/05 03:45:30;;;;;;;0.43;0.40;;;;;;;;;;4987928;28;20057;-80
2023/03/05 03:47:56;;;;;;;1.95;0.20;;;;;;;;;;4988443;28;20026;-80
2023/03/05 03:50:23;;;;;;;0.40;0.40;;;;;;;;;;4987709;28;20031;-81
2023/03/05 03:52:49;;;;;;;0.50;0.50;;;;;;;;;;4989671;28;20725;-80
2023/03/05 03:55:15;;;;;;;0.47;0.32;;;;;;;;;;4984879;28;20054;-80
2023/03/05 03:57:42;;;;;;;0.35;0.30;;;;;;;;;;4986959;28;20018;-80
2023/03/05 04:00:10;;;;;;;1.33;0.82;;;;;;;;;;4986315;28;20429;-80
2023/03/05 04:02:36;;;;;;;1.45;0.50;;;;;;;;;;4988322;28;20118;-80
2023/03/05 04:05:03;;;;;;;1.20;0.60;;;;;;;;;;4986408;28;20304;-81
2023/03/05 04:07:29;;;;;;;4.40;0.40;;;;;;;;;;4970574;28;20035;-80
2023/03/05 04:09:55;;;;;;;1.02;0.60;;;;;;;;;;4988096;28;20128;-81
2023/03/05 04:12:20;;;;;;;0.85;0.57;;;;;;;;;;4987130;28;20031;-80
2023/03/05 04:14:47;;;;;;;0.90;0.45;;;;;;;;;;4987896;28;20030;-80
2023/03/05 04:17:13;;;;;;;3.92;0.63;;;;;;;;;;4986286;28;20741;-80
2023/03/05 04:19:39;;;;;;;0.70;0.50;;;;;;;;;;4987409;28;20062;-80
2023/03/05 04:22:06;;;;;;;0.73;0.50;;;;;;;;;;4986732;28;20513;-80
2023/03/05 04:24:40;;;;;;;1.55;0.90;;;;;;;;;;4986816;28;20133;-80
2023/03/05 04:27:06;;;;;;;0.40;0.40;;;;;;;;;;4984121;28;20565;-80
2023/03/05 04:29:32;;;;;;;0.32;0.30;;;;;;;;;;4985240;28;20072;-80
2023/03/05 04:31:58;;;;;;;0.75;0.40;;;;;;;;;;4987104;28;20022;-80
2023/03/05 04:34:24;;;;;;;0.50;0.40;;;;;;;;;;4983483;28;20030;-80
2023/03/05 04:36:50;;;;;;;0.55;0.30;;;;;;;;;;4987901;28;20030;-79
2023/03/05 04:39:16;;;;;;;0.30;0.30;;;;;;;;;;4986321;28;20029;-80
2023/03/05 04:41:45;;;;;;;0.40;0.40;;;;;;;;;;4986786;28;20054;-80
2023/03/05 04:44:11;;;;;;;0.70;0.40;;;;;;;;;;4986649;28;20034;-81
2023/03/05 04:46:37;;;;;;;0.40;0.15;;;;;;;;;;4986231;28;20097;-80
2023/03/05 04:49:03;;;;;;;0.85;0.30;;;;;;;;;;4986832;28;20034;-81
2023/03/05 04:51:29;;;;;;;0.20;0.15;;;;;;;;;;4986322;28;20655;-81
2023/03/05 04:53:55;;;;;;;0.47;0.47;;;;;;;;;;4985579;28;20392;-80
2023/03/05 04:56:21;;;;;;;2.60;0.32;;;;;;;;;;4983022;28;20100;-81
2023/03/05 04:58:47;;;;;;;0.85;0.20;;;;;;;;;;4981689;28;20486;-81
2023/03/05 05:01:13;;;;;;;1.15;0.65;;;;;;;;;;4983955;28;20113;-81
2023/03/05 05:03:39;;;;;;;0.20;0.20;;;;;;;;;;4986058;28;20125;-79
2023/03/05 05:06:05;;;;;;;0.40;0.40;;;;;;;;;;4986006;28;20041;-80
2023/03/05 05:08:31;;;;;;;1.20;0.50;;;;;;;;;;4987284;28;20053;-80
2023/03/05 05:11:04;;;;;;;0.30;0.30;;;;;;;;;;4986591;28;20026;-80
2023/03/05 05:13:30;;;;;;;0.80;0.30;;;;;;;;;;4988249;28;20129;-80
2023/03/05 05:15:57;;;;;;;0.40;0.30;;;;;;;;;;4980921;28;20064;-80
2023/03/05 05:18:23;;;;;;;3.78;0.60;;;;;;;;;;4973498;28;20035;-80
2023/03/05 05:20:49;;;;;;;0.32;0.30;;;;;;;;;;4986319;28;20018;-81
2023/03/05 05:23:15;;;;;;;0.32;0.10;;;;;;;;;;4984827;28;20039;-81
2023/03/05 05:25:42;;;;;;;0.77;0.25;;;;;;;;;;4985784;28;20042;-80
2023/03/05 05:28:11;;;;;;;0.25;0.25;;;;;;;;;;4983999;28;20038;-80
2023/03/05 05:30:37;;;;;;;0.55;0.17;;;;;;;;;;4982721;28;20112;-81
2023/03/05 05:33:03;;;;;;;1.25;0.50;;;;;;;;;;4985922;28;20432;-80
2023/03/05 05:35:29;;;;;;;0.75;0.38;;;;;;;;;;4985467;28;20039;-81
2023/03/05 05:37:55;;;;;;;0.47;0.40;;;;;;;;;;4984528;28;20028;-81
2023/03/05 05:40:23;;;;;;;0.30;0.30;;;;;;;;;;4985902;28;20034;-80
2023/03/05 05:42:49;;;;;;;0.40;0.35;;;;;;;;;;4987770;28;20030;-80
2023/03/05 05:45:15;;;;;;;0.25;0.25;;;;;;;;;;4984935;28;21988;-80
2023/03/05 05:47:41;;;;;;;0.25;0.25;;;;;;;;;;4986072;28;20045;-81
2023/03/05 05:50:07;;;;;;;0.55;0.45;;;;;;;;;;4986562;28;20064;-81
2023/03/05 05:52:33;;;;;;;1.17;0.60;;;;;;;;;;4986847;28;20784;-81
2023/03/05 05:54:59;;;;;;;0.40;0.40;;;;;;;;;;4984087;28;20050;-81
2023/03/05 05:57:25;;;;;;;0.28;0.28;;;;;;;;;;4985006;28;20358;-81
2023/03/05 05:59:51;;;;;;;0.10;0.10;;;;;;;;;;4985613;28;20057;-81
2023/03/05 06:02:17;;;;;;;1.30;0.30;;;;;;;;;;4989683;28;20015;-81
2023/03/05 06:04:43;;;;;;;0.20;0.20;;;;;;;;;;4987629;28;20424;-80
2023/03/05 06:07:09;;;;;;;0.35;0.35;;;;;;;;;;4989986;28;20026;-81
2023/03/05 06:09:36;;;;;;;2.33;0.20;;;;;;;;;;4989331;28;20066;-81
2023/03/05 06:12:01;;;;;;;0.35;0.20;;;;;;;;;;4994393;28;20046;-81
2023/03/05 06:14:27;;;;;;;1.63;0.30;;;;;;;;;;4989352;28;20520;-81
2023/03/05 06:16:53;;;;;;;0.40;0.20;;;;;;;;;;4988535;28;20034;-81
2023/03/05 06:19:19;;;;;;;0.25;0.25;;;;;;;;;;4988856;28;20042;-81
2023/03/05 06:21:53;;;;;;;0.10;0.10;;;;;;;;;;4988289;28;20490;-80
2023/03/05 06:24:19;;;;;;;0.20;0.20;;;;;;;;;;4990490;28;20117;-80
2023/03/05 06:26:47;;;;;;;0.70;0.30;;;;;;;;;;4990256;28;20564;-81
2023/03/05 06:29:13;;;;;;;0.38;0.20;;;;;;;;;;4990485;28;20085;-81
2023/03/05 06:31:39;;;;;;;2.00;0.30;;;;;;;;;;4987003;28;20042;-80
2023/03/05 06:34:05;;;;;;;0.20;0.20;;;;;;;;;;4990944;28;20022;-80
2023/03/05 06:36:31;;;;;;;0.20;0.20;;;;;;;;;;4987692;28;20489;-80
2023/03/05 06:38:57;;;;;;;1.13;0.40;;;;;;;;;;4989449;28;20026;-80
2023/03/05 06:41:25;;;;;;;0.70;0.30;;;;;;;;;;4988639;28;20413;-81
2023/03/05 06:43:51;;;;;;;0.10;0.10;;;;;;;;;;4989822;28;20031;-80
2023/03/05 06:46:19;;;;;;;0.30;0.30;;;;;;;;;;4986622;28;20026;-80
2023/03/05 06:48:48;;;;;;;0.30;0.30;;;;;;;;;;4989739;28;20104;-80
2023/03/05 06:51:28;;;;;;;1.13;0.68;;;;;;;;;;4971518;28;20452;-81
2023/03/05 06:53:54;;;;;;;0.85;0.30;;;;;;;;;;4988503;28;20042;-81
2023/03/05 06:56:20;;;;;;;2.63;0.40;;;;;;;;;;4985223;28;20406;-81
2023/03/05 06:58:47;;;;;;;0.65;0.22;;;;;;;;;;4988602;28;20363;-81
2023/03/05 07:01:14;;;;;;;1.02;0.43;;;;;;;;;;4988516;28;20433;-81
2023/03/05 07:03:40;;;;;;;0.55;0.43;;;;;;;;;;4988762;28;20034;-81
2023/03/05 07:06:08;;;;;;;0.30;0.30;;;;;;;;;;4988668;28;20014;-80
2023/03/05 07:08:34;;;;;;;0.20;0.20;;;;;;;;;;4985893;28;20046;-81
2023/03/05 07:11:00;;;;;;;0.90;0.63;;;;;;;;;;4988040;28;20100;-80
2023/03/05 07:13:26;;;;;;;0.70;0.68;;;;;;;;;;4988314;28;20030;-82
2023/03/05 07:15:52;;;;;;;4.22;0.40;;;;;;;;;;4988388;28;20030;-80
2023/03/05 07:18:18;;;;;;;0.20;0.20;;;;;;;;;;4985718;28;20085;-81
2023/03/05 07:20:44;;;;;;;0.20;0.20;;;;;;;;;;4986853;28;20038;-81
2023/03/05 07:23:10;;;;;;;0.30;0.30;;;;;;;;;;4988264;28;20065;-82
2023/03/05 07:25:36;;;;;;;0.35;0.28;;;;;;;;;;4987147;28;20030;-82
2023/03/05 07:28:04;;;;;;;1.92;0.22;;;;;;;;;;4989462;28;20097;-81
2023/03/05 07:30:30;;;;;;;1.70;0.30;;;;;;;;;;4986786;28;20085;-82
2023/03/05 07:32:56;;;;;;;0.40;0.20;;;;;;;;;;4987935;28;20769;-81
2023/03/05 07:35:23;;;;;;;0.30;0.22;;;;;;;;;;4986949;28;20027;-82
2023/03/05 07:37:49;;;;;;;0.57;0.57;;;;;;;;;;4982322;28;20620;-82
2023/03/05 07:40:15;;;;;;;0.73;0.20;;;;;;;;;;4986753;28;20018;-81
2023/03/05 07:42:41;;;;;;;0.55;0.25;;;;;;;;;;4989594;28;20034;-82
2023/03/05 07:45:07;;;;;;;0.32;0.28;;;;;;;;;;4985161;28;20037;-81
2023/03/05 07:47:33;;;;;;;0.30;0.30;;;;;;;;;;4989507;28;20105;-81
2023/03/05 07:49:59;;;;;;;3.33;0.28;;;;;;;;;;4986963;28;20390;-81
2023/03/05 07:52:25;;;;;;;0.50;0.20;;;;;;;;;;4987807;28;20026;-81
2023/03/05 07:54:51;;;;;;;0.22;0.15;;;;;;;;;;4985856;28;20034;-80
2023/03/05 07:57:23;;;;;;;0.13;0.13;;;;;;;;;;4986613;28;20113;-81
2023/03/05 07:59:49;;;;;;;0.40;0.25;;;;;;;;;;4987944;28;20114;-81
2023/03/05 08:02:15;;;;;;;0.20;0.20;;;;;;;;;;4987087;28;20432;-81
2023/03/05 08:04:42;;;;;;;0.17;0.17;;;;;;;;;;4985686;28;20028;-82
2023/03/05 08:07:08;;;;;;;0.57;0.20;;;;;;;;;;4988699;28;20054;-81
2023/03/05 08:09:34;;;;;;;1.95;0.40;;;;;;;;;;4986051;28;20050;-79
2023/03/05 08:12:00;;;;;;;0.40;0.40;;;;;;;;;;4983128;28;20077;-81
2023/03/05 08:14:26;;;;;;;0.32;0.20;;;;;;;;;;4988948;28;20065;-81
2023/03/05 08:16:52;;;;;;;0.10;0.10;;;;;;;;;;4988996;28;20022;-80
2023/03/05 08:19:19;;;;;;;0.95;0.43;;;;;;;;;;4986875;28;20019;-81
2023/03/05 08:21:45;;;;;;;1.67;0.30;;;;;;;;;;4983905;28;20371;-80
2023/03/05 08:24:12;;;;;;;0.43;0.30;;;;;;;;;;4984756;28;21781;-82
2023/03/05 08:26:39;;;;;;;0.30;0.25;;;;;;;;;;4987069;28;20109;-78
2023/03/05 08:29:05;;;;;;;1.20;0.25;;;;;;;;;;4987373;28;20054;-80
2023/03/05 08:31:34;;;;;;;0.93;0.73;;;;;;;;;;4985413;28;20132;-79
2023/03/05 08:34:01;;;;;;;0.30;0.30;;;;;;;;;;4992855;28;20030;-85
2023/03/05 08:36:27;;;;;;;0.85;0.73;;;;;;;;;;4987763;28;20105;-84
2023/03/05 08:38:56;;;;;;;0.10;0.10;;;;;;;;;;4988638;28;20042;-78
2023/03/05 08:41:22;;;;;;;0.38;0.38;;;;;;;;;;4981553;28;20026;-79
2023/03/05 08:43:48;;;;;;;0.77;0.43;;;;;;;;;;4985675;28;20117;-79
2023/03/05 08:46:15;;;;;;;1.77;0.50;;;;;;;;;;4983270;28;20038;-79
2023/03/05 08:48:41;;;;;;;3.42;0.60;;;;;;;;;;4986879;28;20077;-80
2023/03/05 08:51:08;;;;;;;1.77;0.47;;;;;;;;;;4988180;28;20665;-81
2023/03/05 08:53:34;;;;;;;2.47;0.25;;;;;;;;;;4982594;28;20042;-76
2023/03/05 08:56:00;;;;;;;0.50;0.35;;;;;;;;;;4988868;28;20037;-82
2023/03/05 08:58:26;;;;;;;0.63;0.50;;;;;;;;;;4984758;28;20058;-80
2023/03/05 09:00:52;;;;;;;0.20;0.20;;;;;;;;;;5000942;28;20030;-81
2023/03/05 09:03:18;;;;;;;0.38;0.38;;;;;;;;;;4986193;28;20061;-80
2023/03/05 09:05:44;;;;;;;0.20;0.20;;;;;;;;;;4988143;28;20038;-79
2023/03/05 09:08:11;;;;;;;0.20;0.20;;;;;;;;;;4990567;28;20042;-82
2023/03/05 09:10:37;;;;;;;0.52;0.20;;;;;;;;;;4987549;28;20093;-79
2023/03/05 09:13:03;;;;;;;0.50;0.50;;;;;;;;;;4984699;28;20031;-79
2023/03/05 09:15:29;;;;;;;1.58;0.60;;;;;;;;;;4984998;28;20707;-77
2023/03/05 09:17:56;;;;;;;0.80;0.57;;;;;;;;;;4987685;28;20018;-79
2023/03/05 09:20:22;;;;;;;0.25;0.20;;;;;;;;;;4986287;28;20027;-81
2023/03/05 09:22:48;;;;;;;1.08;0.30;;;;;;;;;;4983689;28;20031;-79
2023/03/05 09:25:14;;;;;;;1.25;0.30;;;;;;;;;;4985496;28;20030;-79
2023/03/05 09:27:40;;;;;;;0.32;0.32;;;;;;;;;;4980342;28;20022;-80
2023/03/05 09:30:07;;;;;;;0.40;0.30;;;;;;;;;;4985786;28;20100;-82
2023/03/05 09:32:33;;;;;;;0.32;0.20;;;;;;;;;;4986907;28;20030;-81
2023/03/05 09:34:58;;;;;;;0.25;0.25;;;;;;;;;;4986478;28;20496;-81
2023/03/05 09:37:27;;;;;;;0.30;0.30;;;;;;;;;;4995431;28;20052;-79
2023/03/05 09:39:55;;;;;;;0.22;0.20;;;;;;;;;;4999644;28;20088;-78
2023/03/05 09:42:22;;;;;;;4.18;0.35;;;;;;;;;;4991072;28;20033;-78
2023/03/05 09:44:57;;;;;;;0.22;0.22;;;;;;;;;;4992057;28;20026;-79
2023/03/05 09:47:35;;;;;;;0.03;0.03;;;;;;;;;;4983191;28;20029;-80
2023/03/05 09:50:03;;;;;;;0.17;0.17;;;;;;;;;;4989920;28;20026;-79
2023/03/05 09:52:40;;;;;;;0.30;0.30;;;;;;;;;;4994951;28;20026;-76
2023/03/05 09:55:13;;;;;;;1.73;0.43;;;;;;;;;;4985064;28;20030;-76
2023/03/05 09:57:42;;;;;;;0.68;0.45;;;;;;;;;;4992087;28;20054;-77
2023/03/05 10:00:31;;;;;;;1.80;0.80;;;;;;;;;;4992291;28;20180;-77
2023/03/05 10:03:00;;;;;;;0.10;0.10;;;;;;;;;;4983324;28;20046;-77
2023/03/05 10:05:36;;;;;;;0.30;0.30;;;;;;;;;;4988685;28;20038;-82
2023/03/05 10:08:04;;;;;;;0.65;0.38;;;;;;;;;;4991104;28;20034;-80
2023/03/05 10:10:40;;;;;;;0.32;0.30;;;;;;;;;;4994642;28;20098;-78
2023/03/05 10:13:33;;;;;;;0.55;0.47;;;;;;;;;;4986194;28;20162;-76
2023/03/05 10:15:59;;;;;;;8.73;1.85;;;;;;;;;;4996333;28;20046;-74
2023/03/05 10:18:32;;;;;;;14.70;1.85;;;;;;;;;;4991373;28;20043;-74
2023/03/05 10:20:58;;;;;;;4.63;0.90;;;;;;;;;;4993802;28;20080;-75
2023/03/05 10:23:24;;;;;;;8.32;0.68;;;;;;;;;;4991611;28;20037;-74
2023/03/05 10:26:04;;;;;;;0.60;0.35;;;;;;;;;;4988469;28;20034;-74
2023/03/05 10:28:30;;;;;;;0.45;0.43;;;;;;;;;;4992988;28;20226;-75
2023/03/05 10:31:03;;;;;;;0.77;0.43;;;;;;;;;;4994321;28;20461;-75
2023/03/05 10:33:47;;;;;;;3.92;0.40;;;;;;;;;;4994300;28;20027;-74
2023/03/05 10:36:14;;;;;;;2.70;0.43;;;;;;;;;;4992630;28;20105;-75
2023/03/05 10:38:49;;;;;;;3.92;0.50;;;;;;;;;;4992600;28;20500;-76
2023/03/05 10:41:36;;;;;;;0.30;0.22;;;;;;;;;;4993789;28;20018;-76
2023/03/05 10:44:08;;;;;;;3.22;0.50;;;;;;;;;;4988018;28;20116;-76
2023/03/05 10:46:37;;;;;;;0.40;0.40;;;;;;;;;;4993005;28;20775;-76
2023/03/05 10:49:27;;;;;;;1.92;0.60;;;;;;;;;;4971231;28;20121;-76
2023/03/05 10:52:14;;;;;;;0.73;0.30;;;;;;;;;;4968144;28;20533;-75
2023/03/05 10:54:42;;;;;;;1.83;0.38;;;;;;;;;;4982575;28;20037;-72
2023/03/05 10:57:08;;;;;;;1.10;0.50;;;;;;;;;;4967482;28;20030;-76
2023/03/05 10:59:35;;;;;;;0.08;0.08;;;;;;;;;;4992302;28;20556;-76
2023/03/05 11:02:03;;;;;;;2.92;0.30;;;;;;;;;;4989056;28;20038;-76
2023/03/05 11:04:37;;;;;;;4.88;0.75;;;;;;;;;;4983830;28;20030;-76
2023/03/05 11:07:05;;;;;;;0.30;0.30;;;;;;;;;;4984629;28;20033;-76
2023/03/05 11:09:32;;;;;;;0.57;0.30;;;;;;;;;;4966092;28;20054;-76
2023/03/05 11:12:10;;;;;;;1.42;0.77;;;;;;;;;;4976204;28;20029;-76
2023/03/05 11:15:03;;;;;;;1.55;0.50;;;;;;;;;;4972481;28;20040;-76
2023/03/05 11:17:42;;;;;;;0.40;0.35;;;;;;;;;;4980963;28;20039;-76
2023/03/05 11:20:20;;;;;;;1.42;0.50;;;;;;;;;;4979676;28;20031;-76
2023/03/05 11:23:02;;;;;;;0.30;0.30;;;;;;;;;;4970978;28;20034;-76
2023/03/05 11:25:30;;;;;;;1.98;0.25;;;;;;;;;;4983057;28;20042;-75
2023/03/05 11:27:58;;;;;;;2.28;0.70;;;;;;;;;;4977176;28;20951;-79
2023/03/05 11:30:37;;;;;;;4.18;1.27;;;;;;;;;;4970475;28;20029;-77
2023/03/05 11:33:07;;;;;;;1.00;0.50;;;;;;;;;;4977348;28;20030;-76
2023/03/05 11:35:38;;;;;;;1.23;1.15;;;;;;;;;;4973175;28;20053;-76
2023/03/05 11:38:06;;;;;;;2.42;1.05;;;;;;;;;;4973735;28;20029;-74
2023/03/05 11:40:38;;;;;;;1.63;0.70;;;;;;;;;;4974817;28;20018;-76
2023/03/05 11:43:04;;;;;;;2.47;0.63;;;;;;;;;;4974167;28;20035;-76
2023/03/05 11:45:32;;;;;;;1.45;0.90;;;;;;;;;;4971210;28;20501;-76
2023/03/05 11:48:04;;;;;;;6.22;1.23;;;;;;;;;;4976399;28;20581;-75
2023/03/05 11:50:34;;;;;;;1.70;1.00;;;;;;;;;;4976188;28;20034;-75
2023/03/05 11:53:10;;;;;;;2.88;1.25;;;;;;;;;;4968962;28;20433;-75
2023/03/05 11:55:53;;;;;;;1.73;1.08;;;;;;;;;;4981858;28;20029;-75
2023/03/05 11:58:32;;;;;;;5.30;0.95;;;;;;;;;;4983890;28;20047;-76
2023/03/05 12:01:01;;;;;;;2.92;1.20;;;;;;;;;;4975501;28;20019;-75
2023/03/05 12:03:31;;;;;;;1.42;1.20;;;;;;;;;;4982402;28;20030;-76
2023/03/05 12:06:00;;;;;;;1.52;1.13;;;;;;;;;;4984043;28;20045;-75
2023/03/05 12:08:34;;;;;;;2.35;0.90;;;;;;;;;;4984707;28;20026;-76
2023/03/05 12:11:03;;;;;;;1.45;0.90;;;;;;;;;;4982842;28;20026;-76
2023/03/05 12:13:44;;;;;;;0.90;0.57;;;;;;;;;;4985184;28;20038;-75
2023/03/05 12:16:16;;;;;;;5.38;0.80;;;;;;;;;;4983151;28;20042;-76
2023/03/05 12:18:45;;;;;;;0.68;0.60;;;;;;;;;;4984327;28;20081;-76
2023/03/05 12:21:17;;;;;;;0.40;0.40;;;;;;;;;;4982911;28;20028;-76
2023/03/05 12:23:44;;;;;;;1.17;0.73;;;;;;;;;;4982696;28;20086;-76
2023/03/05 12:26:10;;;;;;;1.27;0.52;;;;;;;;;;4985441;28;20022;-76
2023/03/05 12:28:36;;;;;;;0.95;0.82;;;;;;;;;;4967342;28;20026;-76
2023/03/05 12:31:06;;;;;;;2.30;0.80;;;;;;;;;;4977972;28;20026;-76
2023/03/05 12:33:42;;;;;;;1.17;0.70;;;;;;;;;;4972748;28;20109;-76
2023/03/05 12:36:17;;;;;;;0.50;0.50;;;;;;;;;;4976676;28;20088;-76
2023/03/05 12:38:46;;;;;;;1.45;0.50;;;;;;;;;;4977681;28;20015;-76
2023/03/05 12:41:27;;;;;;;1.67;0.68;;;;;;;;;;4969853;28;20129;-76
2023/03/05 12:44:05;;;;;;;3.33;0.50;;;;;;;;;;4974296;28;20760;-74
2023/03/05 12:46:34;;;;;;;1.15;0.60;;;;;;;;;;4970107;28;20111;-75
2023/03/05 12:49:01;;;;;;;0.60;0.60;;;;;;;;;;4976899;28;20414;-75
2023/03/05 12:51:31;;;;;;;2.22;0.75;;;;;;;;;;4979890;28;20030;-75
2023/03/05 12:53:58;;;;;;;;;;;;;;;;;;4978207;28;20050;-75
2023/03/05 12:56:26;;;;;;;1.73;0.52;;;;;;;;;;4977043;28;19957;-75
2023/03/05 12:58:54;;;;;;;3.42;0.85;;;;;;;;;;4979802;28;20049;-75
2023/03/05 13:01:20;;;;;;;1.30;0.68;;;;;;;;;;4982713;28;20041;-74
2023/03/05 13:03:49;;;;;;;1.92;0.73;;;;;;;;;;4978958;28;20042;-74
2023/03/05 13:06:35;;;;;;;1.95;0.98;;;;;;;;;;4980411;28;20049;-76
2023/03/05 13:09:10;;;;;;;0.95;0.60;;;;;;;;;;4978138;28;20045;-75
2023/03/05 13:11:38;;;;;;;0.95;0.70;;;;;;;;;;4976661;28;20038;-75
2023/03/05 13:14:04;;;;;;;3.60;1.60;;;;;;;;;;4982128;28;20041;-75
2023/03/05 13:16:36;;;;;;;0.40;0.40;;;;;;;;;;4981104;28;20053;-75
2023/03/05 13:19:02;;;;;;;0.40;0.40;;;;;;;;;;4983092;28;20032;-75
2023/03/05 13:21:47;;;;;;;2.10;0.63;;;;;;;;;;4983265;28;21163;-75
2023/03/05 13:24:22;;;;;;;0.90;0.57;;;;;;;;;;4971025;28;20042;-75
2023/03/05 13:26:48;;;;;;;0.30;0.30;;;;;;;;;;4979567;28;20030;-76
2023/03/05 13:29:15;;;;;;;2.25;0.75;;;;;;;;;;4981949;28;20034;-76
2023/03/05 13:31:56;;;;;;;3.13;0.50;;;;;;;;;;4981342;28;20030;-76
2023/03/05 13:34:25;;;;;;;2.03;0.75;;;;;;;;;;4982699;28;20030;-75
2023/03/05 13:37:06;;;;;;;2.15;0.47;;;;;;;;;;4983032;28;20084;-76
2023/03/05 13:39:38;;;;;;;0.50;0.50;;;;;;;;;;4984081;28;20026;-76
2023/03/05 13:42:06;;;;;;;1.02;0.60;;;;;;;;;;4986631;28;20030;-76
2023/03/05 13:44:33;;;;;;;0.73;0.73;;;;;;;;;;4969962;28;20587;-76
2023/03/05 13:47:19;;;;;;;0.73;0.60;;;;;;;;;;4982543;28;20041;-75
2023/03/05 13:49:46;;;;;;;3.03;0.73;;;;;;;;;;4983191;28;20037;-75
2023/03/05 13:52:16;;;;;;;7.65;0.60;;;;;;;;;;4978082;28;20045;-75
2023/03/05 13:54:42;;;;;;;0.43;0.30;;;;;;;;;;4961951;28;20088;-76
2023/03/05 13:57:29;;;;;;;0.75;0.40;;;;;;;;;;4968607;28;20035;-75
2023/03/05 13:59:56;;;;;;;1.30;0.65;;;;;;;;;;4976613;28;20073;-74
2023/03/05 14:02:22;;;;;;;0.50;0.50;;;;;;;;;;4983940;28;20109;-75
2023/03/05 14:04:48;;;;;;;1.00;0.50;;;;;;;;;;4977147;28;20061;-75
2023/03/05 14:07:17;;;;;;;0.52;0.52;;;;;;;;;;4981171;28;20027;-79
2023/03/05 14:09:48;;;;;;;1.33;0.60;;;;;;;;;;4980048;28;20522;-76
2023/03/05 14:12:33;;;;;;;2.50;0.85;;;;;;;;;;4979901;28;20507;-76
2023/03/05 14:15:01;;;;;;;0.90;0.57;;;;;;;;;;4973095;28;20050;-77
2023/03/05 14:17:27;;;;;;;0.60;0.50;;;;;;;;;;4958165;28;20026;-77
2023/03/05 14:20:05;;;;;;;0.40;0.40;;;;;;;;;;4968303;28;20025;-79
2023/03/05 14:22:34;;;;;;;0.65;0.60;;;;;;;;;;4971598;28;20133;-79
2023/03/05 14:25:00;;;;;;;0.68;0.43;;;;;;;;;;4978046;28;20121;-79
2023/03/05 14:27:28;;;;;;;1.75;0.60;;;;;;;;;;4978624;28;20046;-82
2023/03/05 14:29:54;;;;;;;0.93;0.57;;;;;;;;;;4978093;28;20957;-77
2023/03/05 14:32:24;;;;;;;0.60;0.60;;;;;;;;;;4977690;28;20542;-76
2023/03/05 14:34:54;;;;;;;2.73;0.60;;;;;;;;;;4978790;28;20038;-81
2023/03/05 14:37:26;;;;;;;0.93;0.52;;;;;;;;;;4976517;28;20636;-79
2023/03/05 14:39:54;;;;;;;3.85;0.82;;;;;;;;;;4981480;28;20105;-76
2023/03/05 14:42:25;;;;;;;1.10;1.00;;;;;;;;;;4978628;28;20053;-78
2023/03/05 14:44:51;;;;;;;1.55;0.60;;;;;;;;;;4978038;28;20477;-79
2023/03/05 14:47:17;;;;;;;1.65;0.70;;;;;;;;;;4978916;28;20045;-75
2023/03/05 14:49:43;;;;;;;2.28;0.85;;;;;;;;;;4979813;28;20034;-78